.
WxDataArchive / Data Records for 2011-11-03
2011-11-02 November 2011 2011-11-04

Data Records for Thursday, 03 November 2011

Time	Temp	Chill	HIndex	Humid	Dewpt	 Wind 	HiWind	WindDir	Rain 	Barom 
-----	----	-----	------	-----	-----	------	------	-------	-----	----- 
00:00	55.4	55.4	55.4	55	39.5	0	1	292	0.00	30.011 
00:05	55.1	55.1	55.1	56	39.7	0	0	---	0.00	30.011 
00:10	54.8	54.8	54.8	56	39.4	0	1	292	0.00	30.011 
00:15	54.7	54.7	54.7	57	39.8	0	2	248	0.00	30.008 
00:20	54.7	54.7	54.7	57	39.8	0	2	248	0.00	30.008 
00:25	54.7	54.7	54.7	57	39.8	0	3	248	0.00	30.008 
00:30	54.5	54.5	54.5	57	39.6	0	3	248	0.00	30.003 
00:35	54.5	54.5	54.5	57	39.6	0	3	248	0.00	30.003 
00:40	54.5	54.5	54.5	57	39.6	0	2	248	0.00	30.003 
00:45	54.5	54.5	54.5	57	39.6	0	3	248	0.00	29.995 
00:50	54.4	54.4	54.4	57	39.5	0	1	248	0.00	29.995 
00:55	54.4	54.4	54.4	57	39.5	0	3	248	0.00	29.995 
01:00	54.4	54.4	54.4	57	39.5	0	2	248	0.00	29.992 
01:05	54.2	54.2	54.2	57	39.3	0	3	248	0.00	29.992 
01:10	54.4	54.4	54.4	57	39.5	1	4	248	0.00	29.992 
01:15	54.5	54.5	54.5	57	39.6	0	4	270	0.00	29.988 
01:20	54.5	54.5	54.5	56	39.1	0	2	248	0.00	29.988 
01:25	54.5	54.5	54.5	56	39.1	0	3	248	0.00	29.988 
01:30	54.5	54.5	54.5	56	39.1	1	3	270	0.00	29.989 
01:35	54.5	54.5	54.5	56	39.1	1	3	248	0.00	29.989 
01:40	54.5	54.5	54.5	56	39.1	0	3	225	0.00	29.989 
01:45	54.5	54.5	54.5	56	39.1	0	3	270	0.00	29.989 
01:50	54.4	54.4	54.4	56	39.0	1	4	270	0.00	29.989 
01:55	54.4	54.4	54.4	56	39.0	0	4	248	0.00	29.989 
02:00	54.2	54.2	54.2	57	39.3	0	1	248	0.00	29.989 
02:05	54.1	54.1	54.1	57	39.2	0	2	248	0.00	29.989 
02:10	53.9	53.9	53.9	58	39.5	0	3	248	0.00	29.989 
02:15	53.8	53.8	53.8	58	39.4	0	2	248	0.00	29.980 
02:20	53.5	53.5	53.5	58	39.1	0	1	248	0.00	29.980 
02:25	53.5	53.5	53.5	58	39.1	0	2	248	0.00	29.980 
02:30	53.3	53.3	53.3	58	38.9	0	1	248	0.00	29.977 
02:35	53.2	53.2	53.2	59	39.2	0	2	248	0.00	29.977 
02:40	53.1	53.1	53.1	59	39.2	0	2	248	0.00	29.977 
02:45	52.9	52.9	52.9	59	39.0	0	2	248	0.00	29.977 
02:50	52.8	52.8	52.8	59	38.9	0	1	248	0.00	29.977 
02:55	52.6	52.6	52.6	60	39.1	0	1	248	0.00	29.977 
03:00	52.6	52.6	52.6	60	39.1	0	3	248	0.00	29.977 
03:05	52.3	52.3	52.3	60	38.8	0	0	---	0.00	29.977 
03:10	52.2	52.2	52.2	61	39.2	0	0	---	0.00	29.977 
03:15	51.9	51.9	51.9	61	38.9	0	0	---	0.00	29.975 
03:20	51.6	51.6	51.6	62	39.0	0	0	---	0.00	29.975 
03:25	51.4	51.4	51.4	62	38.8	0	1	248	0.00	29.975 
03:30	51.3	51.3	51.3	63	39.1	0	0	---	0.00	29.976 
03:35	51.0	51.0	51.0	63	38.9	0	0	---	0.00	29.976 
03:40	50.8	50.8	50.8	63	38.7	0	0	---	0.00	29.976 
03:45	50.7	50.7	50.7	64	39.0	0	0	---	0.00	29.974 
03:50	50.5	50.5	50.5	64	38.8	0	0	---	0.00	29.974 
03:55	50.4	50.4	50.4	64	38.7	0	0	---	0.00	29.974 
04:00	50.2	50.2	50.2	65	38.9	0	0	---	0.00	29.973 
04:05	50.1	50.1	50.1	65	38.8	0	0	---	0.00	29.973 
04:10	49.9	49.9	49.9	65	38.6	0	0	---	0.00	29.973 
04:15	49.6	49.6	49.6	66	38.7	0	0	---	0.00	29.965 
04:20	49.4	49.4	49.4	67	38.9	0	0	---	0.00	29.965 
04:25	49.1	49.1	49.1	67	38.6	0	0	---	0.00	29.965 
04:30	48.9	48.9	48.9	67	38.4	0	0	---	0.00	29.964 
04:35	48.8	48.8	48.8	68	38.7	0	0	---	0.00	29.964 
04:40	48.6	48.6	48.6	68	38.5	0	0	---	0.00	29.964 
04:45	48.5	48.5	48.5	69	38.8	0	0	---	0.00	29.959 
04:50	48.3	48.3	48.3	69	38.6	0	0	---	0.00	29.959 
04:55	48.2	48.2	48.2	69	38.5	0	0	---	0.00	29.959 
05:00	48.2	48.2	48.2	69	38.5	0	0	---	0.00	29.961 
05:05	48.0	48.0	48.0	69	38.3	0	0	---	0.00	29.961 
05:10	47.7	47.7	47.7	70	38.4	0	0	---	0.00	29.961 
05:15	47.6	47.6	47.6	70	38.3	0	0	---	0.00	29.959 
05:20	47.4	47.4	47.4	71	38.5	0	0	---	0.00	29.959 
05:25	47.4	47.4	47.4	71	38.5	0	0	---	0.00	29.959 
05:30	47.4	47.4	47.4	71	38.5	0	0	---	0.00	29.960 
05:35	47.6	47.6	47.6	71	38.7	0	0	---	0.00	29.960 
05:40	47.6	47.6	47.6	71	38.7	0	0	---	0.00	29.960 
05:45	47.6	47.6	47.6	71	38.7	0	0	---	0.00	29.965 
05:50	47.4	47.4	47.4	71	38.5	0	0	---	0.00	29.965 
05:55	47.3	47.3	47.3	72	38.7	0	0	---	0.00	29.965 
06:00	47.3	47.3	47.3	72	38.7	0	0	---	0.00	29.967 
06:05	47.0	47.0	47.0	72	38.4	0	0	---	0.00	29.967 
06:10	46.7	46.7	46.7	73	38.5	0	0	---	0.00	29.967 
06:15	46.4	46.4	46.4	74	38.6	0	0	---	0.00	29.970 
06:20	45.8	45.8	45.8	75	38.3	0	0	---	0.00	29.970 
06:25	45.5	45.5	45.5	76	38.4	0	0	---	0.00	29.970 
06:30	45.2	45.2	45.2	76	38.1	0	0	---	0.00	29.972 
06:35	45.1	45.1	45.1	78	38.7	0	0	---	0.00	29.972 
06:40	44.6	44.6	44.6	78	38.2	0	0	---	0.00	29.972 
06:45	44.5	44.5	44.5	79	38.4	0	0	---	0.00	29.970 
06:50	44.2	44.2	44.2	80	38.4	0	0	---	0.00	29.970 
06:55	44.1	44.1	44.1	81	38.6	0	0	---	0.00	29.970 
07:00	43.9	43.9	43.9	81	38.5	0	0	---	0.00	29.972 
07:05	43.8	43.8	43.8	81	38.4	0	0	---	0.00	29.972 
07:10	43.6	43.6	43.6	81	38.2	0	0	---	0.00	29.972 
07:15	43.5	43.5	43.5	82	38.4	0	0	---	0.00	29.969 
07:20	43.3	43.3	43.3	83	38.5	0	0	---	0.00	29.969 
07:25	43.2	43.2	43.2	83	38.4	0	0	---	0.00	29.969 
07:30	43.1	43.1	43.1	84	38.6	0	0	---	0.00	29.966 
07:35	42.9	42.9	42.9	84	38.4	0	0	---	0.00	29.966 
07:40	42.9	42.9	42.9	84	38.4	0	0	---	0.00	29.966 
07:45	42.8	42.8	42.8	84	38.3	0	0	---	0.00	29.958 
07:50	42.8	42.8	42.8	85	38.6	0	0	---	0.00	29.958 
07:55	42.6	42.6	42.6	85	38.4	0	0	---	0.00	29.958 
08:00	42.6	42.6	42.6	85	38.4	0	0	---	0.00	29.960 
08:05	42.5	42.5	42.5	86	38.6	0	0	---	0.00	29.960 
08:10	42.5	42.5	42.5	86	38.6	0	0	---	0.00	29.960 
08:15	42.5	42.5	42.5	86	38.6	0	0	---	0.00	29.959 
08:20	42.5	42.5	42.5	87	38.9	0	0	---	0.00	29.959 
08:25	42.3	42.3	42.3	87	38.7	0	0	---	0.00	29.959 
08:30	42.3	42.3	42.3	87	38.7	0	0	---	0.00	29.971 
08:35	42.5	42.5	42.5	87	38.9	0	0	---	0.00	29.971 
08:40	42.5	42.5	42.5	87	38.9	0	0	---	0.00	29.971 
08:45	42.5	42.5	42.5	87	38.9	0	0	---	0.00	29.974 
08:50	42.6	42.6	42.6	88	39.3	0	0	---	0.00	29.974 
08:55	42.6	42.6	42.6	88	39.3	0	0	---	0.00	29.974 
09:00	42.8	42.8	42.8	88	39.5	0	0	---	0.00	29.970 
09:05	43.1	43.1	43.1	87	39.5	0	0	---	0.00	29.970 
09:10	43.2	43.2	43.2	87	39.6	0	0	---	0.00	29.970 
09:15	43.3	43.3	43.3	87	39.7	0	0	---	0.00	29.974 
09:20	43.3	43.3	43.3	87	39.7	0	0	---	0.00	29.974 
09:25	43.6	43.6	43.6	86	39.7	0	0	---	0.00	29.974 
09:30	43.9	43.9	43.9	85	39.7	0	1	248	0.00	29.976 
09:35	44.2	44.2	44.2	85	40.0	0	0	---	0.00	29.976 
09:40	44.5	44.5	44.5	84	40.0	0	0	---	0.00	29.976 
09:45	44.8	44.8	44.8	83	40.0	0	1	248	0.00	29.978 
09:50	45.2	45.2	45.2	82	40.0	0	1	248	0.00	29.978 
09:55	45.5	45.5	45.5	81	40.0	0	1	248	0.00	29.978 
10:00	45.8	45.8	45.8	81	40.3	0	1	248	0.00	29.975 
10:05	46.1	46.1	46.1	81	40.6	0	1	248	0.00	29.975 
10:10	46.2	46.2	46.2	81	40.7	0	1	248	0.00	29.975 
10:15	46.4	46.4	46.4	81	40.9	0	0	---	0.00	29.973 
10:20	46.7	46.7	46.7	81	41.2	0	0	---	0.00	29.973 
10:25	46.8	46.8	46.8	80	41.0	0	3	248	0.00	29.973 
10:30	46.8	46.8	46.8	80	41.0	0	3	248	0.00	29.971 
10:35	47.0	47.0	47.0	80	41.2	0	1	90	0.00	29.971 
10:40	47.3	47.3	47.3	79	41.1	0	1	90	0.00	29.971 
10:45	47.3	47.3	47.3	79	41.1	0	1	90	0.00	29.978 
10:50	47.4	47.4	47.4	79	41.2	1	4	90	0.00	29.978 
10:55	47.6	47.6	47.6	78	41.1	1	3	90	0.00	29.978 
11:00	47.7	47.7	47.7	78	41.2	1	3	90	0.00	29.983 
11:05	47.9	47.9	47.9	79	41.7	0	1	90	0.00	29.983 
11:10	47.9	47.9	47.9	79	41.7	0	2	90	0.00	29.983 
11:15	48.0	48.0	48.0	78	41.5	0	2	90	0.00	29.977 
11:20	48.0	48.0	48.0	79	41.8	1	3	90	0.00	29.977 
11:25	48.2	48.2	48.2	79	42.0	1	3	90	0.00	29.977 
11:30	48.2	48.2	48.2	78	41.7	1	4	90	0.00	29.973 
11:35	48.3	48.3	48.3	78	41.8	0	3	90	0.00	29.973 
11:40	48.5	48.5	48.5	78	42.0	1	5	68	0.00	29.973 
11:45	48.6	48.6	48.6	77	41.7	1	4	68	0.00	29.983 
11:50	48.8	48.8	48.8	77	41.9	1	5	90	0.00	29.983 
11:55	49.1	49.1	49.1	77	42.2	0	2	90	0.00	29.983 
12:00	49.2	49.2	49.2	77	42.3	0	2	90	0.00	29.969 
12:05	49.5	49.5	49.5	76	42.3	0	3	90	0.00	29.969 
12:10	49.6	49.6	49.6	75	42.0	0	2	90	0.00	29.969 
12:15	49.8	49.8	49.8	74	41.9	1	3	90	0.00	29.959 
12:20	50.1	50.1	50.1	73	41.8	1	3	112	0.00	29.959 
12:25	50.4	50.4	50.4	73	42.1	1	3	112	0.00	29.959 
12:30	50.7	50.7	50.7	73	42.4	0	2	112	0.00	29.954 
12:35	50.7	50.7	50.7	73	42.4	1	5	112	0.00	29.954 
12:40	50.7	50.7	50.7	73	42.4	1	6	90	0.00	29.954 
12:45	50.5	50.5	50.5	74	42.5	1	6	90	0.00	29.954 
12:50	50.4	50.4	50.4	74	42.4	1	6	68	0.00	29.954 
12:55	50.4	50.4	50.4	74	42.4	1	6	112	0.00	29.954 
13:00	50.2	50.2	50.2	73	41.9	1	5	68	0.00	29.956 
13:05	50.1	50.1	50.1	74	42.1	1	7	112	0.00	29.956 
13:10	50.1	50.1	50.1	74	42.1	2	5	112	0.00	29.956 
13:15	49.9	49.9	49.9	73	41.6	2	6	90	0.00	29.936 
13:20	49.9	49.9	49.9	74	41.9	2	9	90	0.00	29.936 
13:25	49.9	49.9	49.9	75	42.3	1	5	90	0.00	29.936 
13:30	49.9	49.9	49.9	75	42.3	1	4	112	0.00	29.923 
13:35	50.1	50.1	50.1	76	42.8	2	5	112	0.00	29.923 
13:40	50.1	50.1	50.1	76	42.8	3	11	90	0.00	29.923 
13:45	50.1	50.1	50.1	76	42.8	2	7	90	0.00	29.918 
13:50	50.1	50.1	50.1	76	42.8	2	7	90	0.00	29.918 
13:55	50.2	50.2	50.2	77	43.3	3	10	90	0.00	29.918 
14:00	50.2	50.2	50.2	77	43.3	2	7	90	0.00	29.935 
14:05	50.2	50.2	50.2	78	43.6	3	10	90	0.00	29.935 
14:10	50.4	50.4	50.4	79	44.1	3	6	90	0.00	29.935 
14:15	50.4	50.4	50.4	78	43.8	6	16	112	0.00	29.924 
14:20	50.2	50.2	50.2	79	43.9	3	9	112	0.00	29.924 
14:25	50.2	50.2	50.2	80	44.3	2	9	112	0.00	29.924 
14:30	50.2	50.2	50.2	80	44.3	3	6	90	0.00	29.943 
14:35	50.2	50.2	50.2	80	44.3	2	5	90	0.00	29.943 
14:40	50.2	50.2	50.2	80	44.3	2	5	112	0.00	29.943 
14:45	50.4	50.4	50.4	80	44.5	3	7	45	0.00	29.957 
14:50	50.4	50.4	50.4	80	44.5	2	7	112	0.00	29.957 
14:55	50.4	50.4	50.4	80	44.5	3	8	90	0.00	29.957 
15:00	50.4	50.4	50.4	81	44.8	1	3	112	0.00	29.939 
15:05	50.5	50.5	50.5	80	44.6	2	7	112	0.00	29.939 
15:10	50.5	50.5	50.5	80	44.6	2	5	112	0.00	29.939 
15:15	50.7	50.7	50.7	80	44.8	1	5	90	0.00	29.927 
15:20	50.7	50.7	50.7	80	44.8	2	14	90	0.00	29.927 
15:25	50.8	50.8	50.8	80	44.9	2	5	112	0.00	29.927 
15:30	51.0	51.0	51.0	80	45.0	2	6	90	0.00	29.927 
15:35	51.0	51.0	51.0	80	45.0	1	5	112	0.00	29.927 
15:40	51.1	51.1	51.1	80	45.1	1	6	68	0.00	29.927 
15:45	51.1	51.1	51.1	80	45.1	2	7	112	0.00	29.953 
15:50	51.0	51.0	51.0	81	45.4	2	8	112	0.00	29.953 
15:55	51.0	51.0	51.0	81	45.4	1	6	112	0.00	29.953 
16:00	50.8	50.8	50.8	81	45.2	2	6	112	0.00	29.953 
16:05	50.7	50.7	50.7	81	45.1	2	7	68	0.00	29.953 
16:10	50.5	50.5	50.5	82	45.2	1	4	68	0.00	29.953 
16:15	50.5	50.5	50.5	82	45.2	2	9	68	0.00	29.936 
16:20	50.4	50.4	50.4	82	45.1	2	12	112	0.00	29.936 
16:25	50.4	50.4	50.4	82	45.1	2	9	90	0.00	29.936 
16:30	50.5	50.5	50.5	82	45.2	2	6	112	0.00	29.926 
16:35	50.5	50.5	50.5	82	45.2	1	6	68	0.00	29.926 
16:40	50.5	50.5	50.5	82	45.2	2	5	90	0.00	29.926 
16:45	50.5	50.5	50.5	82	45.2	1	6	90	0.00	29.931 
16:50	50.7	50.7	50.7	82	45.4	1	6	90	0.00	29.931 
16:55	50.7	50.7	50.7	81	45.1	2	7	90	0.00	29.931 
17:00	50.5	50.5	50.5	81	44.9	2	6	112	0.00	29.945 
17:05	50.5	50.5	50.5	81	44.9	3	9	90	0.00	29.945 
17:10	50.4	50.4	50.4	81	44.8	3	11	90	0.00	29.945 
17:15	50.4	50.4	50.4	81	44.8	2	7	135	0.00	29.957 
17:20	50.4	50.4	50.4	81	44.8	1	4	90	0.00	29.957 
17:25	50.2	50.2	50.2	81	44.6	2	6	90	0.00	29.957 
17:30	50.2	50.2	50.2	81	44.6	3	7	90	0.00	29.961 
17:35	50.1	50.1	50.1	81	44.5	2	7	112	0.00	29.961 
17:40	49.9	49.9	49.9	82	44.6	1	6	112	0.00	29.961 
17:45	49.8	49.8	49.8	82	44.5	2	5	90	0.00	29.962 
17:50	49.5	49.5	49.5	83	44.6	1	5	112	0.00	29.962 
17:55	49.4	49.4	49.4	84	44.8	2	7	112	0.00	29.962 
18:00	49.2	49.2	49.2	84	44.6	2	9	112	0.00	29.961 
18:05	49.1	49.1	49.1	85	44.8	3	7	112	0.00	29.961 
18:10	48.9	48.9	48.9	85	44.6	1	6	90	0.00	29.961 
18:15	48.8	48.8	48.8	86	44.8	2	4	90	0.00	29.965 
18:20	48.8	48.8	48.8	86	44.8	2	5	112	0.00	29.965 
18:25	48.6	48.6	48.6	87	44.9	2	6	90	0.00	29.965 
18:30	48.5	48.5	48.5	87	44.8	1	5	68	0.00	29.975 
18:35	48.5	48.5	48.5	87	44.8	2	6	90	0.00	29.975 
18:40	48.5	48.5	48.5	86	44.5	2	4	112	0.00	29.975 
18:45	48.3	48.3	48.3	87	44.6	1	4	90	0.00	29.982 
18:50	48.3	48.3	48.3	86	44.3	2	5	90	0.00	29.982 
18:55	48.3	48.3	48.3	86	44.3	1	6	90	0.00	29.982 
19:00	48.3	48.3	48.3	86	44.3	2	5	90	0.00	29.988 
19:05	48.3	48.3	48.3	86	44.3	1	3	90	0.00	29.988 
19:10	48.3	48.3	48.3	86	44.3	1	3	90	0.00	29.988 
19:15	48.2	48.2	48.2	86	44.2	1	6	90	0.00	29.998 
19:20	48.2	48.2	48.2	85	43.9	1	4	90	0.00	29.998 
19:25	48.2	48.2	48.2	85	43.9	1	4	68	0.00	29.998 
19:30	48.0	48.0	48.0	85	43.7	1	3	68	0.00	30.003 
19:35	48.0	48.0	48.0	85	43.7	1	3	68	0.00	30.003 
19:40	48.0	48.0	48.0	84	43.4	1	4	68	0.00	30.003 
19:45	48.0	48.0	48.0	84	43.4	0	2	90	0.00	30.016 
19:50	47.9	47.9	47.9	84	43.3	1	5	112	0.00	30.016 
19:55	47.9	47.9	47.9	84	43.3	0	3	90	0.00	30.016 
20:00	47.9	47.9	47.9	83	43.0	0	3	90	0.00	30.027 
20:05	47.9	47.9	47.9	83	43.0	1	7	90	0.00	30.027 
20:10	47.9	47.9	47.9	83	43.0	1	5	90	0.00	30.027 
20:15	47.9	47.9	47.9	83	43.0	1	5	90	0.00	30.029 
20:20	47.9	47.9	47.9	82	42.7	1	5	90	0.00	30.029 
20:25	47.9	47.9	47.9	82	42.7	1	6	68	0.00	30.029 
20:30	47.9	47.9	47.9	82	42.7	1	6	68	0.00	30.033 
20:35	47.9	47.9	47.9	81	42.4	1	4	45	0.00	30.033 
20:40	47.7	47.7	47.7	81	42.2	1	6	90	0.00	30.033 
20:45	47.7	47.7	47.7	81	42.2	1	4	90	0.00	30.036 
20:50	47.7	47.7	47.7	81	42.2	1	5	112	0.00	30.036 
20:55	47.7	47.7	47.7	81	42.2	2	6	90	0.00	30.036 
21:00	47.7	47.7	47.7	80	41.8	2	6	68	0.00	30.043 
21:05	47.7	47.7	47.7	80	41.8	1	4	68	0.00	30.043 
21:10	47.7	47.7	47.7	80	41.8	1	5	135	0.00	30.043 
21:15	47.7	47.7	47.7	80	41.8	1	5	135	0.00	30.042 
21:20	47.6	47.6	47.6	80	41.7	1	3	68	0.00	30.042 
21:25	47.6	47.6	47.6	80	41.7	1	4	112	0.00	30.042 
21:30	47.6	47.6	47.6	79	41.4	1	4	112	0.00	30.044 
21:35	47.6	47.6	47.6	79	41.4	1	6	112	0.00	30.044 
21:40	47.6	47.6	47.6	79	41.4	1	5	90	0.00	30.044 
21:45	47.6	47.6	47.6	79	41.4	1	5	112	0.00	30.046 
21:50	47.6	47.6	47.6	80	41.7	1	6	112	0.00	30.046 
21:55	47.6	47.6	47.6	79	41.4	1	5	90	0.00	30.046 
22:00	47.4	47.4	47.4	79	41.2	1	5	90	0.00	30.054 
22:05	47.4	47.4	47.4	79	41.2	0	3	22	0.00	30.054 
22:10	47.4	47.4	47.4	79	41.2	0	4	90	0.00	30.054 
22:15	47.4	47.4	47.4	78	40.9	1	6	135	0.00	30.059 
22:20	47.3	47.3	47.3	78	40.8	0	3	68	0.00	30.059 
22:25	47.3	47.3	47.3	78	40.8	1	3	112	0.00	30.059 
22:30	47.3	47.3	47.3	78	40.8	0	3	90	0.00	30.065 
22:35	47.3	47.3	47.3	77	40.5	1	4	68	0.00	30.065 
22:40	47.3	47.3	47.3	77	40.5	1	4	112	0.00	30.065 
22:45	47.3	47.3	47.3	77	40.5	1	4	90	0.00	30.075 
22:50	47.1	47.1	47.1	77	40.3	1	5	112	0.00	30.075 
22:55	47.1	47.1	47.1	76	39.9	1	5	112	0.00	30.075 
23:00	47.1	47.1	47.1	76	39.9	1	7	135	0.00	30.075 
23:05	47.1	47.1	47.1	76	39.9	0	3	135	0.00	30.075 
23:10	47.1	47.1	47.1	75	39.6	2	7	68	0.00	30.075 
23:15	47.0	47.0	47.0	75	39.5	2	5	90	0.00	30.074 
23:20	47.0	47.0	47.0	74	39.1	2	6	112	0.00	30.074 
23:25	47.0	47.0	47.0	73	38.8	0	7	45	0.00	30.074 
23:30	47.0	47.0	47.0	73	38.8	1	4	112	0.00	30.082 
23:35	46.8	46.8	46.8	72	38.3	1	4	90	0.00	30.082 
23:40	46.7	46.7	46.7	72	38.2	2	6	90	0.00	30.082 
23:45	46.5	46.5	46.5	72	38.0	1	5	45	0.00	30.087 
23:50	46.5	46.5	46.5	71	37.6	1	6	112	0.00	30.087 
23:55	46.4	46.4	46.4	71	37.5	1	5	112	0.00	30.087 

CoCoRaHS
IN-AL-39
A2 Web Hosting
Creative Commons License
GoDaddy
search engine by freefind advanced

loaded 2018-11-15 03:21:07 • last modified 2010-11-18 10:43:29
Privacy PolicyDisclaimer
• wx.awcolley.com is powered by PmWiki v.2002016 •
• all content (unless otherwise noted) © 2018 A W Colley